Time;durP1;ratioP1;P1;durP2;ratioP2;P2;SDS_P1;SDS_P2;PMS_P1;PMS_P2;Temp;Humidity;BMP_temperature;BMP_pressure;BME280_temperature;BME280_humidity;BME280_pressure;Samples;Min_cycle;Max_cycle;Signal;HPM_P1;HPM_P2
2022/02/07 00:00:19;;;;;;;17.50;16.10;;;;;;;4.86;100.00;97122.59;2082695;28;20645;-72
2022/02/07 00:01:31;;;;;;;17.25;15.70;;;;;;;4.86;100.00;97118.09;2082993;28;20172;-72
2022/02/07 00:02:52;;;;;;;17.63;16.23;;;;;;;4.90;100.00;97119.03;2082892;28;20176;-73
2022/02/07 00:04:00;;;;;;;17.65;16.27;;;;;;;4.89;100.00;97122.00;2082778;28;20214;-72
2022/02/07 00:05:03;;;;;;;16.85;15.70;;;;;;;4.92;100.00;97130.09;2081585;28;20680;-73
2022/02/07 00:06:07;;;;;;;16.90;15.60;;;;;;;4.90;100.00;97132.25;2073113;28;20215;-73
2022/02/07 00:07:14;;;;;;;16.50;15.50;;;;;;;4.93;100.00;97134.28;2082175;28;20187;-73
2022/02/07 00:08:17;;;;;;;16.42;15.38;;;;;;;4.93;100.00;97139.56;2081913;28;20288;-72
2022/02/07 00:09:19;;;;;;;16.70;15.60;;;;;;;4.93;100.00;97134.28;2082149;28;20198;-72
2022/02/07 00:10:24;;;;;;;16.60;15.50;;;;;;;4.87;100.00;97124.94;2082929;28;20670;-73
2022/02/07 00:11:27;;;;;;;16.10;15.10;;;;;;;4.88;100.00;97146.88;2081379;28;20205;-73
2022/02/07 00:12:29;;;;;;;16.27;15.27;;;;;;;4.87;100.00;97118.91;2082020;28;20200;-72
2022/02/07 00:13:33;;;;;;;16.60;15.50;;;;;;;4.87;100.00;97130.25;2082777;28;20192;-73
2022/02/07 00:14:38;;;;;;;16.75;15.73;;;;;;;4.86;100.00;97128.66;2082823;28;20223;-73
2022/02/07 00:15:41;;;;;;;17.35;15.95;;;;;;;4.83;100.00;97124.00;2082599;28;20559;-73
2022/02/07 00:16:44;;;;;;;17.52;16.42;;;;;;;4.77;100.00;97120.69;2081587;28;20200;-74
2022/02/07 00:17:48;;;;;;;17.90;16.55;;;;;;;4.75;100.00;97117.59;2082038;28;20218;-75
2022/02/07 00:18:52;;;;;;;17.55;16.10;;;;;;;4.72;100.00;97125.34;2082570;28;20245;-73
2022/02/07 00:19:57;;;;;;;18.30;16.88;;;;;;;4.71;100.00;97111.38;2082791;28;20339;-74
2022/02/07 00:21:01;;;;;;;18.00;16.67;;;;;;;4.65;100.00;97123.16;2080845;28;20203;-72
2022/02/07 00:22:04;;;;;;;19.05;17.65;;;;;;;4.62;100.00;97118.50;2081992;28;20191;-73
2022/02/07 00:23:08;;;;;;;18.95;17.00;;;;;;;4.61;100.00;97124.06;2081433;28;20644;-74
2022/02/07 00:24:11;;;;;;;18.10;16.77;;;;;;;4.63;100.00;97127.19;2081814;28;20568;-74
2022/02/07 00:25:18;;;;;;;17.58;16.38;;;;;;;4.59;100.00;97123.56;2074115;28;20262;-74
2022/02/07 00:26:20;;;;;;;18.48;16.98;;;;;;;4.53;100.00;97113.16;2081944;28;20658;-73
2022/02/07 00:27:23;;;;;;;18.58;17.13;;;;;;;4.53;100.00;97115.81;2082360;28;20252;-73
2022/02/07 00:28:28;;;;;;;18.45;17.15;;;;;;;4.51;100.00;97117.94;2082149;28;20227;-74
2022/02/07 00:29:30;;;;;;;17.88;16.67;;;;;;;4.52;100.00;97114.25;2081875;28;20195;-74
2022/02/07 00:30:34;;;;;;;17.63;16.20;;;;;;;4.49;100.00;97099.00;2082093;28;20230;-73
2022/02/07 00:31:38;;;;;;;17.48;16.27;;;;;;;4.50;100.00;97105.06;2073881;28;20592;-74
2022/02/07 00:32:42;;;;;;;18.17;16.77;;;;;;;4.46;100.00;97104.13;2081363;28;20286;-74
2022/02/07 00:33:47;;;;;;;18.55;17.05;;;;;;;4.49;100.00;97101.63;2082183;28;20195;-74
2022/02/07 00:34:49;;;;;;;18.00;16.60;;;;;;;4.47;100.00;97101.16;2081749;28;20195;-74
2022/02/07 00:35:52;;;;;;;17.60;16.38;;;;;;;4.44;100.00;97104.44;2081830;28;20215;-74
2022/02/07 00:36:54;;;;;;;18.20;16.55;;;;;;;4.42;100.00;97105.78;2081025;28;20224;-73
2022/02/07 00:38:03;;;;;;;18.15;16.75;;;;;;;4.40;100.00;97106.09;2081862;28;20206;-74
2022/02/07 00:39:14;;;;;;;17.55;16.45;;;;;;;4.41;100.00;97102.38;2082729;28;20187;-74
2022/02/07 00:40:43;;;;;;;18.20;16.88;;;;;;;4.39;100.00;97101.91;2082446;28;20195;-74
2022/02/07 00:41:55;;;;;;;17.83;16.52;;;;;;;4.39;100.00;97101.13;2082073;28;20206;-74
2022/02/07 00:43:02;;;;;;;18.70;17.23;;;;;;;4.39;100.00;97104.56;2075351;28;20255;-74
2022/02/07 00:44:12;;;;;;;19.23;17.52;;;;;;;4.40;100.00;97102.69;2081763;28;20274;-74
2022/02/07 00:45:25;;;;;;;17.70;16.30;;;;;;;4.39;100.00;97106.41;2074909;28;20203;-74
2022/02/07 00:46:36;;;;;;;17.83;16.52;;;;;;;4.42;100.00;97101.28;2082096;28;20644;-74
2022/02/07 00:47:40;;;;;;;17.80;16.38;;;;;;;4.42;100.00;97096.00;2081759;28;20207;-73
2022/02/07 00:48:46;;;;;;;18.30;16.85;;;;;;;4.39;100.00;97099.28;2082300;28;20305;-73
2022/02/07 00:49:49;;;;;;;17.90;16.60;;;;;;;4.40;100.00;97100.81;2089604;28;20633;-73
2022/02/07 00:50:56;;;;;;;18.83;17.17;;;;;;;4.39;100.00;97093.22;2081768;28;20196;-71
2022/02/07 00:52:02;;;;;;;17.95;16.52;;;;;;;4.40;100.00;97090.25;2082515;28;20192;-73
2022/02/07 00:53:05;;;;;;;17.15;16.02;;;;;;;4.39;100.00;97094.00;2082174;28;20285;-73
2022/02/07 00:54:10;;;;;;;17.77;16.48;;;;;;;4.37;100.00;97090.88;2082019;28;20207;-74
2022/02/07 00:55:13;;;;;;;17.45;16.15;;;;;;;4.34;100.00;97096.75;2089953;28;20202;-74
2022/02/07 00:56:16;;;;;;;18.45;17.25;;;;;;;4.32;100.00;97088.34;2089833;28;20190;-74
2022/02/07 00:57:17;;;;;;;18.20;17.00;;;;;;;4.38;100.00;97095.06;2089994;28;20704;-74
2022/02/07 00:58:20;;;;;;;17.45;16.08;;;;;;;4.36;100.00;97094.59;2089870;28;20194;-74
2022/02/07 00:59:24;;;;;;;18.23;16.67;;;;;;;4.36;100.00;97099.09;2089885;28;20625;-74
2022/02/07 01:00:27;;;;;;;18.70;17.17;;;;;;;4.33;100.00;97094.41;2082575;28;20200;-74
2022/02/07 01:01:33;;;;;;;18.95;17.75;;;;;;;4.31;100.00;97086.81;2081914;28;20214;-74
2022/02/07 01:02:34;;;;;;;19.83;18.42;;;;;;;4.27;100.00;97083.22;2082790;28;20203;-74
2022/02/07 01:03:38;;;;;;;20.27;18.52;;;;;;;4.27;100.00;97085.88;2082140;28;20223;-74
2022/02/07 01:04:49;;;;;;;18.33;17.02;;;;;;;4.25;100.00;97088.78;2082179;28;20572;-74
2022/02/07 01:05:52;;;;;;;19.70;18.27;;;;;;;4.23;100.00;97098.88;2090169;28;20704;-74
2022/02/07 01:07:01;;;;;;;18.95;17.65;;;;;;;4.22;100.00;97101.81;2089912;28;20203;-74
2022/02/07 01:08:06;;;;;;;18.25;16.95;;;;;;;4.29;100.00;97099.53;2089972;28;20199;-74
2022/02/07 01:09:19;;;;;;;18.25;16.75;;;;;;;4.27;100.00;97104.34;2089841;28;20195;-74
2022/02/07 01:10:32;;;;;;;18.02;16.63;;;;;;;4.28;100.00;97102.47;2083791;28;20579;-74
2022/02/07 01:11:43;;;;;;;17.75;16.33;;;;;;;4.24;100.00;97103.06;2082756;28;20662;-74
2022/02/07 01:13:03;;;;;;;17.90;16.58;;;;;;;4.26;100.00;97097.50;2089826;28;20700;-74
2022/02/07 01:14:45;;;;;;;19.75;18.13;;;;;;;4.23;100.00;97098.09;2086514;28;20202;-74
2022/02/07 01:15:57;;;;;;;19.52;18.33;;;;;;;4.21;100.00;97092.34;2084635;28;20210;-74
2022/02/07 01:23:02;;;;;;;20.08;18.77;;;;;;;3.98;100.00;97088.94;2089980;28;20336;-74
2022/02/07 01:46:35;;;;;;;18.02;16.92;;;;;;;4.06;100.00;97061.06;2083383;28;20225;-74
2022/02/07 01:48:04;;;;;;;16.90;15.80;;;;;;;4.07;100.00;97054.69;2083097;28;20195;-74
2022/02/07 01:50:56;;;;;;;20.08;18.48;;;;;;;4.03;100.00;97048.47;2083323;28;20722;-74
2022/02/07 01:52:11;;;;;;;20.50;19.00;;;;;;;4.03;100.00;97053.75;2076855;28;20223;-75
2022/02/07 01:53:29;;;;;;;20.25;18.75;;;;;;;4.00;100.00;97049.06;2077006;28;20682;-74
2022/02/07 01:54:47;;;;;;;19.85;18.45;;;;;;;3.97;100.00;97051.22;2087099;28;20578;-74
2022/02/07 01:56:03;;;;;;;21.25;19.65;;;;;;;3.92;100.00;97048.75;2089723;28;20210;-74
2022/02/07 01:57:08;;;;;;;21.20;19.58;;;;;;;3.93;100.00;97049.50;2076048;28;20318;-74
2022/02/07 01:58:14;;;;;;;21.70;19.90;;;;;;;3.89;100.00;97038.00;2083811;28;20245;-74
2022/02/07 01:59:17;;;;;;;22.60;20.55;;;;;;;3.89;100.00;97030.09;2090529;28;20689;-74
2022/02/07 02:00:21;;;;;;;21.30;19.58;;;;;;;3.87;100.00;97029.63;2075057;28;20732;-74
2022/02/07 02:01:29;;;;;;;21.65;20.00;;;;;;;3.83;100.00;97029.44;2084061;28;20198;-74
2022/02/07 02:02:35;;;;;;;23.27;21.40;;;;;;;3.77;100.00;97019.31;2083219;28;20196;-74
2022/02/07 02:03:38;;;;;;;23.00;21.30;;;;;;;3.75;100.00;97019.63;2083115;28;20355;-73
2022/02/07 02:04:42;;;;;;;22.77;21.17;;;;;;;3.75;100.00;97016.22;2082917;28;20195;-74
2022/02/07 02:05:53;;;;;;;24.48;22.58;;;;;;;3.73;100.00;97029.66;2084345;28;20674;-75
2022/02/07 02:07:04;;;;;;;24.83;22.85;;;;;;;3.68;100.00;97025.31;2075859;28;20572;-74
2022/02/07 02:08:07;;;;;;;25.63;23.65;;;;;;;3.70;100.00;97025.00;2083334;28;20246;-74
2022/02/07 02:09:13;;;;;;;24.25;22.45;;;;;;;3.70;100.00;97025.00;2082929;28;20195;-74
2022/02/07 02:10:17;;;;;;;22.63;21.02;;;;;;;3.65;100.00;97023.28;2075388;28;20204;-74
2022/02/07 02:11:21;;;;;;;23.70;21.90;;;;;;;3.65;100.00;97033.84;2083523;28;20743;-73
2022/02/07 02:12:28;;;;;;;23.63;22.00;;;;;;;3.67;100.00;97030.91;2082876;28;20777;-74
2022/02/07 02:13:48;;;;;;;23.13;21.52;;;;;;;3.67;100.00;97030.91;2083807;28;20736;-74
2022/02/07 02:15:04;;;;;;;24.80;22.90;;;;;;;3.70;100.00;97030.28;2082939;28;20697;-74
2022/02/07 02:16:14;;;;;;;22.90;21.30;;;;;;;3.71;100.00;97029.19;2082889;28;20690;-74
2022/02/07 02:17:45;;;;;;;21.25;19.70;;;;;;;3.70;100.00;97030.28;2083104;28;20568;-74
2022/02/07 02:32:54;;;;;;;22.52;20.88;;;;;;;3.44;100.00;97031.97;2083192;28;20225;-74
2022/02/07 02:34:53;;;;;;;20.92;19.45;;;;;;;3.40;100.00;97029.16;2083287;28;20199;-74
2022/02/07 02:36:09;;;;;;;21.02;19.63;;;;;;;3.38;100.00;97023.38;2088324;28;20661;-74
2022/02/07 02:37:16;;;;;;;20.45;18.95;;;;;;;3.37;100.00;97029.75;2086458;28;20202;-74
2022/02/07 02:38:26;;;;;;;20.55;19.25;;;;;;;3.34;100.00;97036.41;2082754;28;20192;-74
2022/02/07 02:46:20;;;;;;;19.38;18.08;;;;;;;3.22;100.00;97045.91;2091274;28;20248;-74
2022/02/07 02:47:28;;;;;;;23.77;17.95;;;;;;;3.27;100.00;97046.56;2089875;28;20202;-74
2022/02/07 02:48:41;;;;;;;19.85;18.58;;;;;;;3.23;100.00;97036.94;2082655;28;20199;-74
2022/02/07 02:49:47;;;;;;;18.00;16.90;;;;;;;3.20;100.00;97033.00;2075292;28;20207;-75
2022/02/07 02:50:53;;;;;;;18.42;17.23;;;;;;;3.20;100.00;97038.28;2075293;28;20209;-74
2022/02/07 02:51:55;;;;;;;18.77;17.30;;;;;;;3.21;100.00;97039.84;2082233;28;20220;-74
2022/02/07 02:52:59;;;;;;;18.67;17.27;;;;;;;3.19;100.00;97041.22;2074452;28;20244;-74
2022/02/07 02:54:06;;;;;;;20.02;18.42;;;;;;;3.16;100.00;97039.97;2083206;28;20302;-74
2022/02/07 02:55:11;;;;;;;19.83;18.08;;;;;;;3.16;100.00;97041.81;2082643;28;20670;-74
2022/02/07 02:56:13;;;;;;;19.80;18.35;;;;;;;3.18;100.00;97034.41;2081992;28;20250;-74
2022/02/07 02:57:27;;;;;;;19.33;17.98;;;;;;;3.18;100.00;97023.84;2090864;28;20198;-74
2022/02/07 02:58:33;;;;;;;19.88;18.08;;;;;;;3.15;100.00;97021.84;2090540;28;20562;-75
2022/02/07 02:59:38;;;;;;;18.50;17.30;;;;;;;3.12;100.00;97020.56;2090820;28;20210;-74
2022/02/07 03:00:43;;;;;;;19.05;17.65;;;;;;;3.14;100.00;97007.88;2090301;28;20249;-74
2022/02/07 03:01:58;;;;;;;20.08;18.63;;;;;;;3.08;100.00;97001.94;2076337;28;20211;-74
2022/02/07 03:03:02;;;;;;;19.60;18.15;;;;;;;3.10;100.00;97012.94;2083230;28;20310;-74
2022/02/07 03:04:03;;;;;;;19.02;17.52;;;;;;;3.11;100.00;97003.97;2082493;28;20712;-74
2022/02/07 03:05:07;;;;;;;20.27;18.75;;;;;;;3.08;100.00;97004.56;2082696;28;20215;-74
2022/02/07 03:06:11;;;;;;;18.85;17.45;;;;;;;3.09;100.00;97002.72;2082859;28;20274;-74
2022/02/07 03:07:15;;;;;;;19.25;17.85;;;;;;;3.07;100.00;97007.50;2083350;28;20266;-74
2022/02/07 03:08:20;;;;;;;20.20;18.70;;;;;;;3.15;100.00;97013.94;2082497;28;20195;-74
2022/02/07 03:09:24;;;;;;;19.13;17.60;;;;;;;3.14;100.00;97007.09;2082288;28;20723;-74
2022/02/07 03:10:32;;;;;;;19.65;18.08;;;;;;;3.11;100.00;97013.72;2074419;28;20192;-74
2022/02/07 03:11:34;;;;;;;18.98;17.35;;;;;;;3.14;100.00;97012.38;2075212;28;20196;-74
2022/02/07 03:12:47;;;;;;;19.52;17.88;;;;;;;3.15;100.00;97011.28;2081959;28;20196;-73
2022/02/07 03:13:53;;;;;;;20.00;18.60;;;;;;;3.16;100.00;97011.00;2075731;28;20647;-73
2022/02/07 03:16:36;;;;;;;18.90;17.42;;;;;;;3.19;100.00;97009.59;2075840;28;20207;-72
2022/02/07 03:16:39;;;;;;;19.00;17.70;;;;;;;3.23;100.00;97008.72;2082618;28;20286;-73
2022/02/07 03:17:43;;;;;;;18.45;17.25;;;;;;;3.21;100.00;97004.81;2082537;28;20195;-72
2022/02/07 03:18:48;;;;;;;18.27;16.87;;;;;;;3.18;100.00;96993.03;2082517;28;20223;-73
2022/02/07 03:19:52;;;;;;;18.00;16.90;;;;;;;3.16;100.00;97000.44;2082631;28;20227;-73
2022/02/07 03:20:57;;;;;;;17.40;16.30;;;;;;;3.14;100.00;97005.25;2082167;28;20686;-72
2022/02/07 03:22:01;;;;;;;18.30;17.00;;;;;;;3.12;100.00;97010.00;2090603;28;20278;-73
2022/02/07 03:23:03;;;;;;;17.60;16.50;;;;;;;3.13;100.00;97022.13;2090724;28;20274;-73
2022/02/07 03:24:08;;;;;;;17.38;16.05;;;;;;;3.13;100.00;97024.75;2090618;28;20198;-73
2022/02/07 03:25:17;;;;;;;18.00;16.77;;;;;;;3.13;100.00;97022.13;2083485;28;20207;-73
2022/02/07 03:26:24;;;;;;;17.17;16.08;;;;;;;3.13;100.00;97027.41;2090622;28;20194;-72
2022/02/07 03:27:32;;;;;;;16.90;15.80;;;;;;;3.14;100.00;97020.28;2083103;28;20239;-73
2022/02/07 03:28:38;;;;;;;17.75;16.67;;;;;;;3.17;100.00;97023.09;2083429;28;20204;-72
2022/02/07 03:29:41;;;;;;;17.33;16.23;;;;;;;3.20;100.00;97019.84;2082967;28;20199;-73
2022/02/07 03:30:46;;;;;;;18.60;17.05;;;;;;;3.22;100.00;97019.56;2083216;28;20219;-72
2022/02/07 03:31:49;;;;;;;17.80;16.70;;;;;;;3.19;100.00;97015.66;2082385;28;20282;-72
2022/02/07 03:33:00;;;;;;;17.33;16.23;;;;;;;3.23;100.00;97016.63;2083722;28;20200;-73
2022/02/07 03:34:02;;;;;;;18.02;16.83;;;;;;;3.29;100.00;97012.78;2082706;28;20270;-73
2022/02/07 03:35:07;;;;;;;17.08;16.00;;;;;;;3.31;100.00;97010.66;2082304;28;20207;-73
2022/02/07 03:36:13;;;;;;;17.65;16.33;;;;;;;3.28;100.00;97005.97;2082383;28;20697;-73
2022/02/07 03:37:15;;;;;;;17.80;16.70;;;;;;;3.30;100.00;97003.81;2090544;28;20657;-72
2022/02/07 03:38:17;;;;;;;17.80;16.70;;;;;;;3.31;100.00;96994.06;2082304;28;20200;-72
2022/02/07 03:39:22;;;;;;;17.85;16.70;;;;;;;3.32;100.00;96992.97;2082383;28;20195;-73
2022/02/07 03:40:27;;;;;;;17.70;16.55;;;;;;;3.31;100.00;96986.94;2082965;28;20566;-73
2022/02/07 03:41:32;;;;;;;16.50;15.50;;;;;;;3.32;100.00;96991.13;2090557;28;20194;-72
2022/02/07 03:42:36;;;;;;;17.42;16.35;;;;;;;3.36;100.00;96991.28;2090476;28;20215;-73
2022/02/07 03:43:43;;;;;;;16.90;15.90;;;;;;;3.36;100.00;96989.44;2090770;28;20688;-72
2022/02/07 03:44:44;;;;;;;16.65;15.65;;;;;;;3.41;100.00;96991.19;2091112;28;20202;-73
2022/02/07 03:45:49;;;;;;;17.25;16.20;;;;;;;3.37;100.00;97001.53;2090422;28;20205;-73
2022/02/07 03:46:55;;;;;;;16.80;15.80;;;;;;;3.37;100.00;97001.53;2082888;28;20188;-74
2022/02/07 03:48:02;;;;;;;17.65;16.55;;;;;;;3.42;100.00;97013.03;2090809;28;20195;-73
2022/02/07 03:49:12;;;;;;;17.38;16.20;;;;;;;3.42;100.00;97003.28;2090597;28;20258;-73
2022/02/07 03:50:14;;;;;;;16.98;15.88;;;;;;;3.41;100.00;97004.34;2090390;28;20206;-73
2022/02/07 03:51:26;;;;;;;17.40;16.40;;;;;;;3.39;100.00;96996.75;2090149;28;20700;-74
2022/02/07 03:52:29;;;;;;;16.38;15.38;;;;;;;3.41;100.00;97004.34;2090370;28;20236;-72
2022/02/07 03:53:33;;;;;;;17.02;16.02;;;;;;;3.42;100.00;97002.50;2090407;28;20278;-70
2022/02/07 03:54:38;;;;;;;17.48;16.38;;;;;;;3.43;100.00;96993.50;2090663;28;20203;-71
2022/02/07 03:55:45;;;;;;;16.27;15.27;;;;;;;3.45;100.00;96991.34;2082095;28;20674;-71
2022/02/07 03:56:49;;;;;;;16.42;15.43;;;;;;;3.47;100.00;96982.06;2090478;28;20195;-71
2022/02/07 03:57:53;;;;;;;15.98;14.98;;;;;;;3.48;100.00;96981.00;2090625;28;20665;-73
2022/02/07 03:58:57;;;;;;;16.67;15.60;;;;;;;3.50;100.00;96978.06;2090466;28;20657;-70
2022/02/07 04:00:04;;;;;;;16.33;15.32;;;;;;;3.49;100.00;96982.56;2090650;28;20210;-72
2022/02/07 04:01:22;;;;;;;16.23;15.23;;;;;;;3.51;100.00;96976.97;2090579;28;20253;-71
2022/02/07 04:02:26;;;;;;;16.40;15.40;;;;;;;3.49;100.00;96979.13;2090254;28;20213;-71
2022/02/07 04:03:31;;;;;;;16.38;15.38;;;;;;;3.48;100.00;96980.22;2090327;28;20673;-73
2022/02/07 04:04:33;;;;;;;16.58;15.57;;;;;;;3.51;100.00;96982.25;2090298;28;20186;-71
2022/02/07 04:05:46;;;;;;;17.00;15.90;;;;;;;3.49;100.00;96981.78;2090263;28;20530;-72
2022/02/07 04:06:55;;;;;;;17.05;15.98;;;;;;;3.48;100.00;96993.41;2083851;28;20690;-71
2022/02/07 04:08:01;;;;;;;17.40;16.20;;;;;;;3.43;100.00;96991.66;2081898;28;20204;-71
2022/02/07 04:09:08;;;;;;;17.50;16.35;;;;;;;3.44;100.00;96998.47;2082527;28;20204;-71
2022/02/07 04:10:35;;;;;;;17.27;16.17;;;;;;;3.43;100.00;96993.50;2085516;28;20272;-71
2022/02/07 04:11:45;;;;;;;16.27;15.27;;;;;;;3.39;100.00;96999.38;2090532;28;20657;-71
2022/02/07 04:12:53;;;;;;;17.20;16.10;;;;;;;3.34;100.00;97002.13;2082790;28;20628;-71
2022/02/07 04:13:58;;;;;;;17.00;15.90;;;;;;;3.31;100.00;97013.28;2090612;28;20691;-72
2022/02/07 04:15:00;;;;;;;17.02;15.93;;;;;;;3.27;100.00;97001.00;2090126;28;20199;-71
2022/02/07 04:16:06;;;;;;;17.13;16.13;;;;;;;3.27;100.00;97003.63;2090217;28;20199;-72
2022/02/07 04:17:16;;;;;;;18.13;16.92;;;;;;;3.26;100.00;97012.63;2090403;28;20215;-71
2022/02/07 04:18:24;;;;;;;18.00;16.90;;;;;;;3.24;100.00;97020.81;2090091;28;20194;-71
2022/02/07 04:19:33;;;;;;;17.55;16.45;;;;;;;3.21;100.00;97017.97;2082697;28;20567;-72
2022/02/07 04:20:38;;;;;;;17.77;16.58;;;;;;;3.21;100.00;97016.13;2083154;28;20198;-72
2022/02/07 04:21:43;;;;;;;17.02;16.02;;;;;;;3.18;100.00;97019.38;2089814;28;20223;-71
2022/02/07 04:22:47;;;;;;;16.98;15.80;;;;;;;3.12;100.00;97020.56;2090171;28;20199;-72
2022/02/07 04:24:02;;;;;;;15.95;14.95;;;;;;;3.08;100.00;97023.00;2084015;28;20287;-72
2022/02/07 04:25:12;;;;;;;15.40;14.50;;;;;;;3.04;100.00;97024.69;2083485;28;20206;-72
2022/02/07 04:26:29;;;;;;;16.10;15.10;;;;;;;3.05;100.00;97026.25;2083891;28;20278;-72
2022/02/07 04:27:34;;;;;;;16.27;15.18;;;;;;;3.03;100.00;97031.00;2082267;28;20227;-72
2022/02/07 04:28:39;;;;;;;16.70;15.60;;;;;;;3.02;100.00;97037.34;2082259;28;20203;-72
2022/02/07 04:29:44;;;;;;;17.00;15.90;;;;;;;3.00;100.00;97034.25;2082599;28;20203;-72
2022/02/07 04:30:47;;;;;;;17.30;16.13;;;;;;;2.99;100.00;97047.72;2082324;28;20227;-71
2022/02/07 04:31:53;;;;;;;17.50;16.30;;;;;;;3.01;100.00;97048.97;2082510;28;20697;-72
2022/02/07 04:32:56;;;;;;;16.67;15.60;;;;;;;3.02;100.00;97053.16;2090060;28;20207;-71
2022/02/07 04:34:00;;;;;;;16.90;15.90;;;;;;;3.03;100.00;97049.44;2081968;28;20650;-71
2022/02/07 04:35:05;;;;;;;17.27;16.17;;;;;;;3.05;100.00;97047.31;2082711;28;20211;-71
2022/02/07 04:36:08;;;;;;;17.75;16.50;;;;;;;3.08;100.00;97054.63;2081444;28;20196;-71
2022/02/07 04:37:12;;;;;;;17.88;16.70;;;;;;;3.09;100.00;97053.53;2082413;28;20264;-71
2022/02/07 04:38:17;;;;;;;17.63;16.52;;;;;;;3.09;100.00;97042.22;2082068;28;20657;-71
2022/02/07 04:39:25;;;;;;;17.02;15.95;;;;;;;3.12;100.00;97052.16;2082556;28;20740;-71
2022/02/07 04:40:31;;;;;;;17.25;16.15;;;;;;;3.18;100.00;97050.97;2082966;28;20246;-71
2022/02/07 04:41:35;;;;;;;17.10;15.90;;;;;;;3.25;100.00;97050.59;2090071;28;20199;-73
2022/02/07 04:42:39;;;;;;;16.45;15.45;;;;;;;3.27;100.00;97051.06;2090219;28;20684;-71
2022/02/07 04:43:49;;;;;;;16.35;15.38;;;;;;;3.26;100.00;97044.22;2082287;28;20196;-71
2022/02/07 04:45:07;;;;;;;17.02;15.93;;;;;;;3.29;100.00;97054.94;2082847;28;20261;-71
2022/02/07 04:46:31;;;;;;;16.70;15.70;;;;;;;3.37;100.00;97054.25;2089956;28;20195;-72
2022/02/07 04:47:46;;;;;;;17.00;15.80;;;;;;;3.40;100.00;97048.38;2084532;28;20290;-71
2022/02/07 04:49:19;;;;;;;17.38;16.27;;;;;;;3.45;100.00;97049.34;2083755;28;20222;-72
2022/02/07 04:50:32;;;;;;;20.75;19.45;;;;;;;3.47;100.00;97045.31;2090119;28;20202;-73
2022/02/07 04:53:20;;;;;;;25.10;23.40;;;;;;;3.44;100.00;97055.69;2090141;28;20233;-73
2022/02/07 04:56:11;;;;;;;22.90;21.20;;;;;;;3.34;100.00;97044.31;2083639;28;20542;-73
2022/02/07 04:57:42;;;;;;;22.77;21.27;;;;;;;3.32;100.00;97051.72;2089786;28;20211;-73
2022/02/07 04:59:00;;;;;;;23.20;21.42;;;;;;;3.27;100.00;97051.84;2085666;28;20191;-73
2022/02/07 05:00:10;;;;;;;22.00;20.40;;;;;;;3.22;100.00;97054.59;2083660;28;20207;-74
2022/02/07 05:01:34;;;;;;;22.27;20.77;;;;;;;3.21;100.00;97060.16;2084965;28;20677;-73
2022/02/07 05:02:57;;;;;;;22.25;20.75;;;;;;;3.19;100.00;97062.31;2083435;28;20190;-73
2022/02/07 05:04:07;;;;;;;22.67;21.17;;;;;;;3.17;100.00;97061.81;2083865;28;20226;-73
2022/02/07 05:05:24;;;;;;;22.67;21.17;;;;;;;3.17;100.00;97065.25;2090005;28;20246;-73
2022/02/07 05:14:35;;;;;;;23.40;21.80;;;;;;;3.31;100.00;97070.47;2089829;28;20198;-73
2022/02/07 05:15:42;;;;;;;25.45;23.65;;;;;;;3.28;100.00;97071.06;2082247;28;20203;-73
2022/02/07 05:16:50;;;;;;;24.23;22.42;;;;;;;3.30;100.00;97082.88;2082464;28;20191;-73
2022/02/07 05:18:01;;;;;;;23.48;21.85;;;;;;;3.30;100.00;97090.78;2083726;28;20198;-73
2022/02/07 05:19:13;;;;;;;23.35;21.73;;;;;;;3.29;100.00;97083.16;2089743;28;20258;-73
2022/02/07 05:20:21;;;;;;;24.27;22.67;;;;;;;3.26;100.00;97086.41;2090119;28;20615;-74
2022/02/07 05:21:59;;;;;;;24.08;22.30;;;;;;;3.27;100.00;97096.63;2085597;28;20218;-74
2022/02/07 05:23:13;;;;;;;24.73;23.02;;;;;;;3.29;100.00;97089.19;2089867;28;20579;-73
2022/02/07 05:24:35;;;;;;;25.45;23.65;;;;;;;3.31;100.00;97094.97;2090007;28;20175;-73
2022/02/07 05:26:01;;;;;;;23.60;21.90;;;;;;;3.35;100.00;97089.88;2089718;28;20222;-73
2022/02/07 05:27:23;;;;;;;24.48;22.77;;;;;;;3.35;100.00;97101.22;2089668;28;20171;-73
2022/02/07 05:28:49;;;;;;;24.38;22.67;;;;;;;3.43;100.00;97093.69;2090220;28;20206;-73
2022/02/07 05:30:17;;;;;;;24.10;22.40;;;;;;;3.47;100.00;97098.03;2089621;28;20223;-73
2022/02/07 05:31:47;;;;;;;24.25;22.55;;;;;;;3.46;100.00;97109.66;2090002;28;20548;-73
2022/02/07 05:33:09;;;;;;;23.77;22.17;;;;;;;3.52;100.00;97103.22;2089712;28;20289;-73
2022/02/07 05:34:30;;;;;;;22.35;20.83;;;;;;;3.51;100.00;97111.41;2090242;28;20262;-73
2022/02/07 05:36:02;;;;;;;21.80;20.30;;;;;;;3.49;100.00;97113.59;2089167;28;20269;-72
2022/02/07 05:37:33;;;;;;;20.73;19.33;;;;;;;3.54;100.00;97111.59;2089641;28;20586;-73
2022/02/07 05:38:49;;;;;;;20.30;18.90;;;;;;;3.59;100.00;97126.53;2089582;28;20288;-73
2022/02/07 05:40:06;;;;;;;21.13;19.63;;;;;;;3.69;100.00;97131.56;2090027;28;20175;-73
2022/02/07 05:41:24;;;;;;;20.65;19.00;;;;;;;3.72;100.00;97119.66;2089703;28;20278;-73
2022/02/07 05:42:40;;;;;;;20.67;19.27;;;;;;;3.78;100.00;97132.41;2089839;28;20190;-73
2022/02/07 05:44:02;;;;;;;21.17;19.67;;;;;;;3.75;100.00;97135.66;2090236;28;20696;-74
2022/02/07 05:45:20;;;;;;;22.60;20.90;;;;;;;3.73;100.00;97145.72;2089585;28;20202;-73
2022/02/07 05:46:34;;;;;;;21.13;19.63;;;;;;;3.72;100.00;97136.25;2082998;28;20207;-73
2022/02/07 05:47:43;;;;;;;21.67;20.08;;;;;;;3.73;100.00;97143.06;2082977;28;20686;-73
2022/02/07 05:49:09;;;;;;;22.45;20.65;;;;;;;3.68;100.00;97136.06;2089892;28;20286;-73
2022/02/07 05:50:41;;;;;;;22.00;20.20;;;;;;;3.65;100.00;97133.25;2089421;28;20241;-73
2022/02/07 05:51:54;;;;;;;21.33;19.73;;;;;;;3.64;100.00;97143.00;2088995;28;20237;-72
2022/02/07 05:53:16;;;;;;;22.65;20.60;;;;;;;3.65;100.00;97141.94;2090317;28;20175;-73
2022/02/07 05:54:25;;;;;;;21.65;19.95;;;;;;;3.58;100.00;97144.22;2089784;28;20301;-73
2022/02/07 05:55:48;;;;;;;21.88;20.17;;;;;;;3.58;100.00;97149.47;2089713;28;20198;-73
2022/02/07 05:57:03;;;;;;;22.00;20.10;;;;;;;3.56;100.00;97145.56;2089532;28;20263;-73
2022/02/07 05:58:15;;;;;;;21.80;20.10;;;;;;;3.57;100.00;97152.44;2089573;28;20273;-73
2022/02/07 05:59:39;;;;;;;21.52;19.92;;;;;;;3.53;100.00;97151.44;2084584;28;20218;-73
2022/02/07 06:01:03;;;;;;;22.15;20.55;;;;;;;3.51;100.00;97143.06;2090008;28;20262;-73
2022/02/07 06:02:06;;;;;;;22.38;20.73;;;;;;;3.53;100.00;97156.72;2089643;28;20244;-73
2022/02/07 06:03:09;;;;;;;22.27;20.55;;;;;;;3.54;100.00;97155.63;2081503;28;20196;-73
2022/02/07 06:04:17;;;;;;;21.40;19.90;;;;;;;3.49;100.00;97151.28;2082353;28;20673;-72
2022/02/07 06:05:20;;;;;;;21.40;19.80;;;;;;;3.45;100.00;97149.50;2081976;28;20230;-73
2022/02/07 06:06:25;;;;;;;22.10;20.40;;;;;;;3.43;100.00;97159.56;2089478;28;20242;-73
2022/02/07 06:07:27;;;;;;;21.63;20.02;;;;;;;3.45;100.00;97157.41;2081735;28;20753;-73
2022/02/07 06:08:32;;;;;;;21.38;19.75;;;;;;;3.42;100.00;97158.00;2081664;28;20200;-73
2022/02/07 06:09:34;;;;;;;21.80;20.10;;;;;;;3.40;100.00;97161.72;2081731;28;20286;-74
2022/02/07 06:10:38;;;;;;;21.60;19.90;;;;;;;3.39;100.00;97173.34;2081631;28;20207;-73
2022/02/07 06:11:42;;;;;;;21.42;19.65;;;;;;;3.37;100.00;97180.75;2089660;28;20555;-73
2022/02/07 06:12:46;;;;;;;21.00;19.30;;;;;;;3.42;100.00;97171.19;2089432;28;20198;-73
2022/02/07 06:13:49;;;;;;;20.90;19.23;;;;;;;3.44;100.00;97166.41;2089705;28;20246;-73
2022/02/07 06:14:53;;;;;;;21.13;19.35;;;;;;;3.38;100.00;97161.22;2089342;28;20714;-73
2022/02/07 06:15:57;;;;;;;20.55;19.00;;;;;;;3.36;100.00;97181.06;2089550;28;20377;-73
2022/02/07 06:17:01;;;;;;;22.30;20.50;;;;;;;3.34;100.00;97184.00;2081736;28;20195;-73
2022/02/07 06:18:07;;;;;;;22.80;20.92;;;;;;;3.36;100.00;97184.47;2081325;28;20199;-74
2022/02/07 06:19:11;;;;;;;22.52;20.83;;;;;;;3.34;100.00;97184.00;2081952;28;20538;-73
2022/02/07 06:20:19;;;;;;;23.25;21.35;;;;;;;3.36;100.00;97188.97;2082312;28;20200;-74